sensor_id;sensor_type;location;lat;lon;timestamp;pressure;altitude;pressure_sealevel;temperature;humidity
64668;BME280;51077;42.716;23.344;2023-08-21T00:01:01;95683.47;;;25.08;44.79
64668;BME280;51077;42.716;23.344;2023-08-21T00:03:26;95687.44;;;25.05;44.55
64668;BME280;51077;42.716;23.344;2023-08-21T00:05:52;95685.25;;;25.03;44.85
64668;BME280;51077;42.716;23.344;2023-08-21T00:08:17;95692.03;;;25.00;45.07
64668;BME280;51077;42.716;23.344;2023-08-21T00:10:43;95698.25;;;24.99;44.94
64668;BME280;51077;42.716;23.344;2023-08-21T00:13:08;95687.50;;;24.95;44.98
64668;BME280;51077;42.716;23.344;2023-08-21T00:15:34;95697.09;;;24.92;45.17
64668;BME280;51077;42.716;23.344;2023-08-21T00:18:00;95691.34;;;24.90;45.03
64668;BME280;51077;42.716;23.344;2023-08-21T00:20:26;95686.94;;;24.87;45.11
64668;BME280;51077;42.716;23.344;2023-08-21T00:22:51;95681.91;;;24.86;45.06
64668;BME280;51077;42.716;23.344;2023-08-21T00:25:17;95683.97;;;24.85;45.42
64668;BME280;51077;42.716;23.344;2023-08-21T00:27:42;95677.34;;;24.80;45.18
64668;BME280;51077;42.716;23.344;2023-08-21T00:30:08;95679.44;;;24.80;45.21
64668;BME280;51077;42.716;23.344;2023-08-21T00:32:34;95671.63;;;24.78;45.35
64668;BME280;51077;42.716;23.344;2023-08-21T00:35:00;95677.81;;;24.77;45.30
64668;BME280;51077;42.716;23.344;2023-08-21T00:37:25;95688.91;;;24.75;45.54
64668;BME280;51077;42.716;23.344;2023-08-21T00:39:51;95691.59;;;24.73;45.54
64668;BME280;51077;42.716;23.344;2023-08-21T00:42:16;95689.38;;;24.71;45.57
64668;BME280;51077;42.716;23.344;2023-08-21T00:44:42;95690.72;;;24.70;45.47
64668;BME280;51077;42.716;23.344;2023-08-21T00:47:07;95689.09;;;24.67;45.53
64668;BME280;51077;42.716;23.344;2023-08-21T00:49:33;95699.59;;;24.67;45.47
64668;BME280;51077;42.716;23.344;2023-08-21T00:51:59;95686.75;;;24.64;45.87
64668;BME280;51077;42.716;23.344;2023-08-21T00:54:25;95693.56;;;24.61;45.70
64668;BME280;51077;42.716;23.344;2023-08-21T00:56:50;95696.94;;;24.59;45.89
64668;BME280;51077;42.716;23.344;2023-08-21T00:59:18;95704.50;;;24.56;45.87
64668;BME280;51077;42.716;23.344;2023-08-21T01:01:45;95695.94;;;24.54;45.96
64668;BME280;51077;42.716;23.344;2023-08-21T01:04:11;95704.22;;;24.52;46.22
64668;BME280;51077;42.716;23.344;2023-08-21T01:06:36;95701.88;;;24.49;46.12
64668;BME280;51077;42.716;23.344;2023-08-21T01:09:08;95693.16;;;24.45;46.34
64668;BME280;51077;42.716;23.344;2023-08-21T01:11:42;95698.50;;;24.41;46.26
64668;BME280;51077;42.716;23.344;2023-08-21T01:16:47;95699.38;;;24.33;46.31
64668;BME280;51077;42.716;23.344;2023-08-21T01:20:05;95705.59;;;24.32;46.40
64668;BME280;51077;42.716;23.344;2023-08-21T01:22:09;95709.44;;;24.27;46.39
64668;BME280;51077;42.716;23.344;2023-08-21T01:24:35;95709.16;;;24.23;46.33
64668;BME280;51077;42.716;23.344;2023-08-21T01:27:00;95710.31;;;24.20;46.38
64668;BME280;51077;42.716;23.344;2023-08-21T01:29:26;95715.66;;;24.16;46.71
64668;BME280;51077;42.716;23.344;2023-08-21T01:32:07;95703.56;;;24.13;46.68
64668;BME280;51077;42.716;23.344;2023-08-21T01:34:37;95713.03;;;24.08;46.88
64668;BME280;51077;42.716;23.344;2023-08-21T01:37:04;95700.03;;;24.03;46.80
64668;BME280;51077;42.716;23.344;2023-08-21T01:39:29;95708.16;;;23.99;46.88
64668;BME280;51077;42.716;23.344;2023-08-21T01:41:56;95713.00;;;23.98;47.05
64668;BME280;51077;42.716;23.344;2023-08-21T01:44:21;95707.13;;;23.94;46.89
64668;BME280;51077;42.716;23.344;2023-08-21T01:46:47;95708.44;;;23.93;47.06
64668;BME280;51077;42.716;23.344;2023-08-21T01:49:12;95706.84;;;23.90;47.24
64668;BME280;51077;42.716;23.344;2023-08-21T01:51:37;95710.81;;;23.87;47.17
64668;BME280;51077;42.716;23.344;2023-08-21T01:54:03;95707.88;;;23.85;47.18
64668;BME280;51077;42.716;23.344;2023-08-21T01:56:28;95695.06;;;23.82;47.21
64668;BME280;51077;42.716;23.344;2023-08-21T01:58:54;95699.75;;;23.79;47.22
64668;BME280;51077;42.716;23.344;2023-08-21T02:01:19;95704.47;;;23.77;47.39
64668;BME280;51077;42.716;23.344;2023-08-21T02:03:45;95701.53;;;23.75;47.50
64668;BME280;51077;42.716;23.344;2023-08-21T02:06:11;95700.63;;;23.72;47.43
64668;BME280;51077;42.716;23.344;2023-08-21T02:08:37;95707.44;;;23.69;47.51
64668;BME280;51077;42.716;23.344;2023-08-21T02:11:02;95705.09;;;23.66;47.65
64668;BME280;51077;42.716;23.344;2023-08-21T02:13:28;95707.69;;;23.64;47.55
64668;BME280;51077;42.716;23.344;2023-08-21T02:15:53;95711.09;;;23.62;47.62
64668;BME280;51077;42.716;23.344;2023-08-21T02:18:19;95707.41;;;23.59;47.74
64668;BME280;51077;42.716;23.344;2023-08-21T02:20:44;95708.72;;;23.58;47.63
64668;BME280;51077;42.716;23.344;2023-08-21T02:23:10;95703.00;;;23.56;47.84
64668;BME280;51077;42.716;23.344;2023-08-21T02:25:35;95705.63;;;23.54;47.99
64668;BME280;51077;42.716;23.344;2023-08-21T02:28:00;95699.16;;;23.52;47.97
64668;BME280;51077;42.716;23.344;2023-08-21T02:30:28;95704.59;;;23.50;47.85
64668;BME280;51077;42.716;23.344;2023-08-21T02:32:54;95699.44;;;23.46;47.91
64668;BME280;51077;42.716;23.344;2023-08-21T02:35:23;95693.09;;;23.46;48.22
64668;BME280;51077;42.716;23.344;2023-08-21T02:37:48;95700.63;;;23.43;48.26
64668;BME280;51077;42.716;23.344;2023-08-21T02:40:14;95694.84;;;23.41;48.23
64668;BME280;51077;42.716;23.344;2023-08-21T02:42:39;95700.31;;;23.39;48.34
64668;BME280;51077;42.716;23.344;2023-08-21T02:45:05;95707.81;;;23.37;48.14
64668;BME280;51077;42.716;23.344;2023-08-21T02:47:38;95702.09;;;23.35;48.37
64668;BME280;51077;42.716;23.344;2023-08-21T02:50:05;95699.84;;;23.33;48.53
64668;BME280;51077;42.716;23.344;2023-08-21T02:52:31;95702.53;;;23.31;48.59
64668;BME280;51077;42.716;23.344;2023-08-21T02:54:58;95696.03;;;23.28;48.50
64668;BME280;51077;42.716;23.344;2023-08-21T02:57:24;95699.41;;;23.27;48.58
64668;BME280;51077;42.716;23.344;2023-08-21T02:59:50;95706.19;;;23.24;48.45
64668;BME280;51077;42.716;23.344;2023-08-21T03:02:15;95704.72;;;23.23;48.58
64668;BME280;51077;42.716;23.344;2023-08-21T03:04:41;95714.28;;;23.20;48.70
64668;BME280;51077;42.716;23.344;2023-08-21T03:07:06;95715.63;;;23.19;48.55
64668;BME280;51077;42.716;23.344;2023-08-21T03:09:32;95716.78;;;23.16;48.91
64668;BME280;51077;42.716;23.344;2023-08-21T03:11:57;95713.84;;;23.14;49.04
64668;BME280;51077;42.716;23.344;2023-08-21T03:14:25;95711.63;;;23.12;49.12
64668;BME280;51077;42.716;23.344;2023-08-21T03:16:51;95713.53;;;23.10;49.13
64668;BME280;51077;42.716;23.344;2023-08-21T03:19:16;95716.19;;;23.07;49.11
64668;BME280;51077;42.716;23.344;2023-08-21T03:21:42;95723.69;;;23.05;49.07
64668;BME280;51077;42.716;23.344;2023-08-21T03:24:07;95722.78;;;23.02;49.06
64668;BME280;51077;42.716;23.344;2023-08-21T03:26:32;95722.78;;;23.02;49.45
64668;BME280;51077;42.716;23.344;2023-08-21T03:28:58;95729.56;;;22.99;49.63
64668;BME280;51077;42.716;23.344;2023-08-21T03:31:23;95722.47;;;22.98;49.58
64668;BME280;51077;42.716;23.344;2023-08-21T03:33:49;95725.13;;;22.96;49.66
64668;BME280;51077;42.716;23.344;2023-08-21T03:36:14;95732.06;;;22.95;49.70
64668;BME280;51077;42.716;23.344;2023-08-21T03:38:40;95725.56;;;22.93;49.54
64668;BME280;51077;42.716;23.344;2023-08-21T03:41:05;95732.50;;;22.92;49.43
64668;BME280;51077;42.716;23.344;2023-08-21T03:43:32;95726.16;;;22.91;49.83
64668;BME280;51077;42.716;23.344;2023-08-21T03:45:57;95726.72;;;22.90;49.78
64668;BME280;51077;42.716;23.344;2023-08-21T03:48:23;95735.53;;;22.86;49.61
64668;BME280;51077;42.716;23.344;2023-08-21T03:50:49;95724.19;;;22.84;50.11
64668;BME280;51077;42.716;23.344;2023-08-21T03:53:15;95724.78;;;22.82;50.28
64668;BME280;51077;42.716;23.344;2023-08-21T03:55:40;95730.94;;;22.81;50.39
64668;BME280;51077;42.716;23.344;2023-08-21T03:58:06;95728.91;;;22.81;50.43
64668;BME280;51077;42.716;23.344;2023-08-21T04:00:31;95733.72;;;22.81;50.66
64668;BME280;51077;42.716;23.344;2023-08-21T04:02:57;95729.63;;;22.82;50.85
64668;BME280;51077;42.716;23.344;2023-08-21T04:05:23;95733.91;;;22.83;50.79
64668;BME280;51077;42.716;23.344;2023-08-21T04:07:48;95735.38;;;22.84;50.79
64668;BME280;51077;42.716;23.344;2023-08-21T04:10:14;95736.09;;;22.84;50.79
64668;BME280;51077;42.716;23.344;2023-08-21T04:12:41;95737.00;;;22.87;50.87
64668;BME280;51077;42.716;23.344;2023-08-21T04:15:06;95739.94;;;22.89;50.96
64668;BME280;51077;42.716;23.344;2023-08-21T04:17:32;95751.50;;;22.93;50.97
64668;BME280;51077;42.716;23.344;2023-08-21T04:19:57;95749.59;;;22.96;50.98
64668;BME280;51077;42.716;23.344;2023-08-21T04:22:23;95746.38;;;22.99;50.88
64668;BME280;51077;42.716;23.344;2023-08-21T04:24:48;95754.31;;;23.03;50.79
64668;BME280;51077;42.716;23.344;2023-08-21T04:27:14;95756.84;;;23.08;50.60
64668;BME280;51077;42.716;23.344;2023-08-21T04:29:39;95750.97;;;23.14;50.66
64668;BME280;51077;42.716;23.344;2023-08-21T04:32:05;95744.53;;;23.21;50.49
64668;BME280;51077;42.716;23.344;2023-08-21T04:34:35;95753.53;;;23.29;50.30
64668;BME280;51077;42.716;23.344;2023-08-21T04:37:00;95744.41;;;23.39;50.14
64668;BME280;51077;42.716;23.344;2023-08-21T04:39:26;95751.66;;;23.51;49.78
64668;BME280;51077;42.716;23.344;2023-08-21T04:41:51;95748.00;;;23.78;48.97
64668;BME280;51077;42.716;23.344;2023-08-21T04:44:17;95748.75;;;24.07;48.46
64668;BME280;51077;42.716;23.344;2023-08-21T04:46:43;95758.31;;;24.14;48.23
64668;BME280;51077;42.716;23.344;2023-08-21T04:49:08;95758.16;;;24.22;48.08
64668;BME280;51077;42.716;23.344;2023-08-21T04:51:34;95768.19;;;24.44;47.66
64668;BME280;51077;42.716;23.344;2023-08-21T04:54:00;95755.72;;;24.67;46.98
64668;BME280;51077;42.716;23.344;2023-08-21T04:56:26;95767.91;;;24.91;46.31
64668;BME280;51077;42.716;23.344;2023-08-21T04:58:52;95763.56;;;25.09;46.15
64668;BME280;51077;42.716;23.344;2023-08-21T05:01:18;95768.22;;;25.26;45.90
64668;BME280;51077;42.716;23.344;2023-08-21T05:03:43;95767.97;;;25.43;45.35
64668;BME280;51077;42.716;23.344;2023-08-21T05:06:09;95775.16;;;25.56;44.82
64668;BME280;51077;42.716;23.344;2023-08-21T05:08:34;95775.94;;;25.68;44.70
64668;BME280;51077;42.716;23.344;2023-08-21T05:11:01;95777.81;;;25.75;44.38
64668;BME280;51077;42.716;23.344;2023-08-21T05:13:26;95770.59;;;25.72;44.66
64668;BME280;51077;42.716;23.344;2023-08-21T05:15:53;95778.22;;;25.60;44.95
64668;BME280;51077;42.716;23.344;2023-08-21T05:18:22;95779.50;;;25.47;44.87
64668;BME280;51077;42.716;23.344;2023-08-21T05:20:49;95781.59;;;25.37;45.52
64668;BME280;51077;42.716;23.344;2023-08-21T05:23:15;95776.94;;;25.30;45.57
64668;BME280;51077;42.716;23.344;2023-08-21T05:25:40;95777.38;;;25.26;45.57
64668;BME280;51077;42.716;23.344;2023-08-21T05:28:06;95785.09;;;25.26;45.80
64668;BME280;51077;42.716;23.344;2023-08-21T05:30:35;95783.13;;;25.28;45.70
64668;BME280;51077;42.716;23.344;2023-08-21T05:33:00;95783.41;;;25.32;45.55
64668;BME280;51077;42.716;23.344;2023-08-21T05:35:26;95785.03;;;25.36;45.63
64668;BME280;51077;42.716;23.344;2023-08-21T05:37:51;95781.16;;;25.41;45.75
64668;BME280;51077;42.716;23.344;2023-08-21T05:40:17;95774.47;;;25.46;45.36
64668;BME280;51077;42.716;23.344;2023-08-21T05:42:42;95771.34;;;25.51;45.39
64668;BME280;51077;42.716;23.344;2023-08-21T05:45:07;95773.94;;;25.59;45.46
64668;BME280;51077;42.716;23.344;2023-08-21T05:47:33;95768.72;;;25.65;45.59
64668;BME280;51077;42.716;23.344;2023-08-21T05:49:59;95781.97;;;25.74;45.39
64668;BME280;51077;42.716;23.344;2023-08-21T05:52:24;95778.22;;;25.81;44.97
64668;BME280;51077;42.716;23.344;2023-08-21T05:54:50;95776.69;;;25.90;44.74
64668;BME280;51077;42.716;23.344;2023-08-21T05:57:15;95776.50;;;25.98;44.54
64668;BME280;51077;42.716;23.344;2023-08-21T05:59:45;95776.56;;;26.10;44.23
64668;BME280;51077;42.716;23.344;2023-08-21T06:02:11;95774.13;;;26.16;44.47
64668;BME280;51077;42.716;23.344;2023-08-21T06:04:41;95777.59;;;26.26;44.25
64668;BME280;51077;42.716;23.344;2023-08-21T06:07:07;95772.50;;;26.34;43.75
64668;BME280;51077;42.716;23.344;2023-08-21T06:09:32;95777.44;;;26.45;43.56
64668;BME280;51077;42.716;23.344;2023-08-21T06:12:00;95773.19;;;26.56;43.23
64668;BME280;51077;42.716;23.344;2023-08-21T06:14:26;95778.72;;;26.66;43.30
64668;BME280;51077;42.716;23.344;2023-08-21T06:16:59;95777.97;;;26.77;43.12
64668;BME280;51077;42.716;23.344;2023-08-21T06:19:25;95779.34;;;26.88;42.79
64668;BME280;51077;42.716;23.344;2023-08-21T06:21:51;95776.56;;;26.99;42.45
64668;BME280;51077;42.716;23.344;2023-08-21T06:24:16;95783.06;;;27.14;42.14
64668;BME280;51077;42.716;23.344;2023-08-21T06:26:42;95778.19;;;27.26;42.34
64668;BME280;51077;42.716;23.344;2023-08-21T06:29:07;95779.03;;;27.40;42.08
64668;BME280;51077;42.716;23.344;2023-08-21T06:31:33;95784.13;;;27.55;41.81
64668;BME280;51077;42.716;23.344;2023-08-21T06:33:58;95785.09;;;27.72;41.43
64668;BME280;51077;42.716;23.344;2023-08-21T06:36:24;95783.88;;;27.87;41.24
64668;BME280;51077;42.716;23.344;2023-08-21T06:38:49;95789.69;;;28.02;40.96
64668;BME280;51077;42.716;23.344;2023-08-21T06:41:14;95787.81;;;28.19;40.49
64668;BME280;51077;42.716;23.344;2023-08-21T06:43:40;95787.25;;;28.34;40.14
64668;BME280;51077;42.716;23.344;2023-08-21T06:46:06;95792.47;;;28.51;40.06
64668;BME280;51077;42.716;23.344;2023-08-21T06:48:32;95779.97;;;28.68;39.85
64668;BME280;51077;42.716;23.344;2023-08-21T06:50:57;95785.88;;;28.86;39.30
64668;BME280;51077;42.716;23.344;2023-08-21T06:53:22;95781.25;;;29.04;39.17
64668;BME280;51077;42.716;23.344;2023-08-21T06:55:48;95780.75;;;29.22;38.86
64668;BME280;51077;42.716;23.344;2023-08-21T06:58:13;95785.88;;;29.39;38.45
64668;BME280;51077;42.716;23.344;2023-08-21T07:00:39;95779.72;;;29.57;38.26
64668;BME280;51077;42.716;23.344;2023-08-21T07:03:04;95779.28;;;29.76;37.67
64668;BME280;51077;42.716;23.344;2023-08-21T07:05:33;95780.31;;;29.96;37.26
64668;BME280;51077;42.716;23.344;2023-08-21T07:07:58;95782.56;;;30.14;37.21
64668;BME280;51077;42.716;23.344;2023-08-21T07:10:24;95777.69;;;30.30;36.74
64668;BME280;51077;42.716;23.344;2023-08-21T07:12:49;95779.31;;;30.49;36.05
64668;BME280;51077;42.716;23.344;2023-08-21T07:15:15;95778.06;;;30.68;35.77
64668;BME280;51077;42.716;23.344;2023-08-21T07:17:41;95770.53;;;30.88;35.89
64668;BME280;51077;42.716;23.344;2023-08-21T07:20:06;95778.50;;;31.08;35.35
64668;BME280;51077;42.716;23.344;2023-08-21T07:22:32;95770.16;;;31.27;34.92
64668;BME280;51077;42.716;23.344;2023-08-21T07:24:58;95766.03;;;31.46;34.39
64668;BME280;51077;42.716;23.344;2023-08-21T07:27:25;95771.94;;;31.68;34.07
64668;BME280;51077;42.716;23.344;2023-08-21T07:29:51;95769.16;;;31.86;34.19
64668;BME280;51077;42.716;23.344;2023-08-21T07:32:16;95766.47;;;32.06;33.63
64668;BME280;51077;42.716;23.344;2023-08-21T07:34:42;95768.81;;;32.29;33.05
64668;BME280;51077;42.716;23.344;2023-08-21T07:37:07;95771.03;;;32.49;32.79
64668;BME280;51077;42.716;23.344;2023-08-21T07:39:34;95769.56;;;32.66;32.70
64668;BME280;51077;42.716;23.344;2023-08-21T07:41:59;95769.69;;;32.88;32.20
64668;BME280;51077;42.716;23.344;2023-08-21T07:44:26;95765.59;;;33.11;31.68
64668;BME280;51077;42.716;23.344;2023-08-21T07:46:51;95767.06;;;33.32;31.15
64668;BME280;51077;42.716;23.344;2023-08-21T07:49:17;95762.56;;;33.44;30.87
64668;BME280;51077;42.716;23.344;2023-08-21T07:51:42;95756.69;;;33.60;30.80
64668;BME280;51077;42.716;23.344;2023-08-21T07:54:08;95758.00;;;33.77;30.34
64668;BME280;51077;42.716;23.344;2023-08-21T07:56:33;95755.75;;;33.95;30.19
64668;BME280;51077;42.716;23.344;2023-08-21T07:59:01;95752.81;;;34.13;29.71
64668;BME280;51077;42.716;23.344;2023-08-21T08:01:26;95750.56;;;34.32;29.13
64668;BME280;51077;42.716;23.344;2023-08-21T08:03:52;95758.75;;;34.43;29.00
64668;BME280;51077;42.716;23.344;2023-08-21T08:06:17;95756.31;;;34.56;29.13
64668;BME280;51077;42.716;23.344;2023-08-21T08:08:43;95747.53;;;34.71;28.74
64668;BME280;51077;42.716;23.344;2023-08-21T08:11:09;95738.81;;;34.89;28.28
64668;BME280;51077;42.716;23.344;2023-08-21T08:13:34;95741.13;;;35.19;27.62
64668;BME280;51077;42.716;23.344;2023-08-21T08:16:00;95737.19;;;35.32;27.89
64668;BME280;51077;42.716;23.344;2023-08-21T08:18:26;95739.72;;;35.46;27.92
64668;BME280;51077;42.716;23.344;2023-08-21T08:20:51;95737.25;;;35.60;28.08
64668;BME280;51077;42.716;23.344;2023-08-21T08:23:19;95734.31;;;35.84;27.34
64668;BME280;51077;42.716;23.344;2023-08-21T08:25:44;95736.22;;;36.02;27.18
64668;BME280;51077;42.716;23.344;2023-08-21T08:28:10;95733.34;;;36.02;27.18
64668;BME280;51077;42.716;23.344;2023-08-21T08:30:35;95726.53;;;36.15;27.11
64668;BME280;51077;42.716;23.344;2023-08-21T08:33:01;95730.53;;;36.34;26.60
64668;BME280;51077;42.716;23.344;2023-08-21T08:35:26;95728.91;;;36.55;26.51
64668;BME280;51077;42.716;23.344;2023-08-21T08:37:51;95727.09;;;36.69;26.45
64668;BME280;51077;42.716;23.344;2023-08-21T08:40:17;95721.22;;;36.95;25.74
64668;BME280;51077;42.716;23.344;2023-08-21T08:42:42;95724.56;;;37.18;25.58
64668;BME280;51077;42.716;23.344;2023-08-21T08:45:08;95718.41;;;37.32;25.39
64668;BME280;51077;42.716;23.344;2023-08-21T08:47:34;95714.47;;;37.49;24.85
64668;BME280;51077;42.716;23.344;2023-08-21T08:50:04;95709.13;;;37.71;24.37
64668;BME280;51077;42.716;23.344;2023-08-21T08:52:39;95709.28;;;37.80;24.09
64668;BME280;51077;42.716;23.344;2023-08-21T08:55:05;95708.38;;;37.69;24.58
64668;BME280;51077;42.716;23.344;2023-08-21T08:57:32;95704.41;;;37.86;24.19
64668;BME280;51077;42.716;23.344;2023-08-21T08:59:58;95710.34;;;38.01;24.20
64668;BME280;51077;42.716;23.344;2023-08-21T09:02:25;95702.50;;;38.01;24.39
64668;BME280;51077;42.716;23.344;2023-08-21T09:04:51;95701.81;;;38.03;24.13
64668;BME280;51077;42.716;23.344;2023-08-21T09:07:17;95700.59;;;38.18;24.19
64668;BME280;51077;42.716;23.344;2023-08-21T09:09:48;95702.50;;;38.45;23.57
64668;BME280;51077;42.716;23.344;2023-08-21T09:12:16;95704.72;;;38.51;23.51
64668;BME280;51077;42.716;23.344;2023-08-21T09:14:42;95691.34;;;38.68;23.46
64668;BME280;51077;42.716;23.344;2023-08-21T09:17:08;95692.97;;;38.83;23.28
64668;BME280;51077;42.716;23.344;2023-08-21T09:19:33;95693.84;;;38.96;23.01
64668;BME280;51077;42.716;23.344;2023-08-21T09:22:10;95688.56;;;39.31;22.72
64668;BME280;51077;42.716;23.344;2023-08-21T09:24:41;95690.84;;;39.42;22.34
64668;BME280;51077;42.716;23.344;2023-08-21T09:27:24;95689.56;;;39.58;21.64
64668;BME280;51077;42.716;23.344;2023-08-21T09:29:49;95683.03;;;39.51;21.63
64668;BME280;51077;42.716;23.344;2023-08-21T09:32:15;95680.97;;;39.62;21.56
64668;BME280;51077;42.716;23.344;2023-08-21T09:34:41;95673.81;;;39.63;21.22
64668;BME280;51077;42.716;23.344;2023-08-21T09:37:07;95673.94;;;39.73;20.98
64668;BME280;51077;42.716;23.344;2023-08-21T09:39:34;95672.53;;;39.76;20.95
64668;BME280;51077;42.716;23.344;2023-08-21T09:42:00;95671.16;;;39.85;20.40
64668;BME280;51077;42.716;23.344;2023-08-21T09:44:27;95667.56;;;39.85;20.33
64668;BME280;51077;42.716;23.344;2023-08-21T09:46:52;95662.50;;;39.81;20.46
64668;BME280;51077;42.716;23.344;2023-08-21T09:49:19;95661.91;;;39.95;20.11
64668;BME280;51077;42.716;23.344;2023-08-21T09:51:45;95655.66;;;40.23;19.60
64668;BME280;51077;42.716;23.344;2023-08-21T09:54:11;95657.84;;;40.27;19.93
64668;BME280;51077;42.716;23.344;2023-08-21T09:56:37;95656.41;;;40.26;19.90
64668;BME280;51077;42.716;23.344;2023-08-21T09:59:03;95652.19;;;40.43;19.62
64668;BME280;51077;42.716;23.344;2023-08-21T10:01:30;95647.78;;;40.28;19.76
64668;BME280;51077;42.716;23.344;2023-08-21T10:04:00;95639.81;;;40.22;19.68
64668;BME280;51077;42.716;23.344;2023-08-21T10:06:28;95645.63;;;40.30;19.80
64668;BME280;51077;42.716;23.344;2023-08-21T10:08:54;95644.84;;;40.17;19.68
64668;BME280;51077;42.716;23.344;2023-08-21T10:11:20;95639.22;;;40.38;19.58
64668;BME280;51077;42.716;23.344;2023-08-21T10:13:46;95640.72;;;40.49;19.49
64668;BME280;51077;42.716;23.344;2023-08-21T10:16:12;95637.97;;;40.74;19.49
64668;BME280;51077;42.716;23.344;2023-08-21T10:18:43;95631.59;;;40.93;19.03
64668;BME280;51077;42.716;23.344;2023-08-21T10:21:17;95628.81;;;41.18;18.86
64668;BME280;51077;42.716;23.344;2023-08-21T10:23:48;95633.16;;;41.35;18.78
64668;BME280;51077;42.716;23.344;2023-08-21T10:26:14;95627.44;;;41.62;18.53
64668;BME280;51077;42.716;23.344;2023-08-21T10:31:40;95617.41;;;41.96;18.19
64668;BME280;51077;42.716;23.344;2023-08-21T10:34:10;95617.38;;;42.08;18.37
64668;BME280;51077;42.716;23.344;2023-08-21T10:39:15;95608.66;;;42.49;17.33
64668;BME280;51077;42.716;23.344;2023-08-21T10:47:22;95597.09;;;42.55;16.43
64668;BME280;51077;42.716;23.344;2023-08-21T10:49:51;95589.91;;;42.52;16.60
64668;BME280;51077;42.716;23.344;2023-08-21T10:52:26;95593.44;;;42.77;16.26
64668;BME280;51077;42.716;23.344;2023-08-21T10:54:54;95592.03;;;42.65;16.43
64668;BME280;51077;42.716;23.344;2023-08-21T10:57:22;95583.31;;;42.78;15.93
64668;BME280;51077;42.716;23.344;2023-08-21T10:59:55;95588.31;;;42.87;15.39
64668;BME280;51077;42.716;23.344;2023-08-21T11:02:21;95577.53;;;42.80;15.78
64668;BME280;51077;42.716;23.344;2023-08-21T11:04:48;95576.72;;;43.00;15.34
64668;BME280;51077;42.716;23.344;2023-08-21T11:07:14;95582.34;;;43.26;15.37
64668;BME280;51077;42.716;23.344;2023-08-21T11:09:40;95573.66;;;43.30;15.65
64668;BME280;51077;42.716;23.344;2023-08-21T11:12:10;95575.03;;;43.39;15.42
64668;BME280;51077;42.716;23.344;2023-08-21T11:14:37;95563.88;;;42.66;16.04
64668;BME280;51077;42.716;23.344;2023-08-21T11:17:02;95577.63;;;42.53;16.10
64668;BME280;51077;42.716;23.344;2023-08-21T11:19:30;95571.97;;;42.06;16.42
64668;BME280;51077;42.716;23.344;2023-08-21T11:21:56;95569.06;;;42.23;15.90
64668;BME280;51077;42.716;23.344;2023-08-21T11:24:22;95566.09;;;42.55;15.66
64668;BME280;51077;42.716;23.344;2023-08-21T11:26:48;95566.69;;;42.84;15.51
64668;BME280;51077;42.716;23.344;2023-08-21T11:29:13;95563.06;;;42.84;15.60
64668;BME280;51077;42.716;23.344;2023-08-21T11:31:39;95568.06;;;43.02;15.39
64668;BME280;51077;42.716;23.344;2023-08-21T11:34:05;95553.59;;;43.08;15.44
64668;BME280;51077;42.716;23.344;2023-08-21T11:36:30;95562.28;;;43.04;15.34
64668;BME280;51077;42.716;23.344;2023-08-21T11:39:01;95553.59;;;43.00;15.14
64668;BME280;51077;42.716;23.344;2023-08-21T11:41:29;95553.59;;;43.08;15.10
64668;BME280;51077;42.716;23.344;2023-08-21T11:44:01;95555.16;;;42.84;14.89
64668;BME280;51077;42.716;23.344;2023-08-21T11:46:28;95553.13;;;42.44;15.42
64668;BME280;51077;42.716;23.344;2023-08-21T11:48:53;95549.50;;;42.48;15.23
64668;BME280;51077;42.716;23.344;2023-08-21T11:51:19;95553.88;;;42.42;15.07
64668;BME280;51077;42.716;23.344;2023-08-21T11:53:47;95558.97;;;42.30;15.44
64668;BME280;51077;42.716;23.344;2023-08-21T11:56:16;95543.81;;;42.21;15.21
64668;BME280;51077;42.716;23.344;2023-08-21T11:58:44;95553.91;;;42.18;15.35
64668;BME280;51077;42.716;23.344;2023-08-21T12:01:10;95543.75;;;42.46;15.33
64668;BME280;51077;42.716;23.344;2023-08-21T12:03:39;95545.72;;;42.94;14.97
64668;BME280;51077;42.716;23.344;2023-08-21T12:06:09;95532.63;;;43.09;14.91
64668;BME280;51077;42.716;23.344;2023-08-21T12:08:35;95538.44;;;43.03;15.06
64668;BME280;51077;42.716;23.344;2023-08-21T12:11:02;95534.63;;;43.31;14.64
64668;BME280;51077;42.716;23.344;2023-08-21T12:13:28;95529.56;;;43.32;14.52
64668;BME280;51077;42.716;23.344;2023-08-21T12:15:54;95520.25;;;43.25;15.00
64668;BME280;51077;42.716;23.344;2023-08-21T12:18:19;95520.75;;;43.56;14.84
64668;BME280;51077;42.716;23.344;2023-08-21T12:20:44;95527.03;;;43.79;14.55
64668;BME280;51077;42.716;23.344;2023-08-21T12:23:10;95525.69;;;43.66;14.74
64668;BME280;51077;42.716;23.344;2023-08-21T12:25:36;95519.38;;;43.47;14.78
64668;BME280;51077;42.716;23.344;2023-08-21T12:28:01;95522.78;;;43.72;14.44
64668;BME280;51077;42.716;23.344;2023-08-21T12:30:27;95525.81;;;43.54;14.75
64668;BME280;51077;42.716;23.344;2023-08-21T12:32:52;95522.84;;;43.62;14.62
64668;BME280;51077;42.716;23.344;2023-08-21T12:35:17;95523.69;;;43.48;14.41
64668;BME280;51077;42.716;23.344;2023-08-21T12:37:43;95512.91;;;43.36;14.50
64668;BME280;51077;42.716;23.344;2023-08-21T12:40:08;95507.22;;;43.26;14.98
64668;BME280;51077;42.716;23.344;2023-08-21T12:42:34;95504.25;;;43.36;14.72
64668;BME280;51077;42.716;23.344;2023-08-21T12:45:00;95514.56;;;43.13;14.95
64668;BME280;51077;42.716;23.344;2023-08-21T12:47:25;95510.94;;;43.14;14.70
64668;BME280;51077;42.716;23.344;2023-08-21T12:49:51;95501.69;;;42.91;14.63
64668;BME280;51077;42.716;23.344;2023-08-21T12:52:16;95504.00;;;42.69;15.05
64668;BME280;51077;42.716;23.344;2023-08-21T12:54:41;95499.75;;;42.47;14.93
64668;BME280;51077;42.716;23.344;2023-08-21T12:57:08;95507.00;;;42.32;15.07
64668;BME280;51077;42.716;23.344;2023-08-21T12:59:34;95494.81;;;42.15;15.46